createdAt,value
2023-01-20T00:01:34.114Z,97.01
2023-01-20T00:04:02.315Z,97.46
2023-01-20T00:06:31.778Z,96.71
2023-01-20T00:09:01.301Z,96.49
2023-01-20T00:11:29.914Z,96.37
2023-01-20T00:13:59.244Z,95.89
2023-01-20T00:16:28.341Z,95.52
2023-01-20T00:18:56.719Z,95.47
2023-01-20T00:21:24.831Z,94.73
2023-01-20T00:23:54.560Z,94.88
2023-01-20T00:26:25.322Z,95.83
2023-01-20T00:28:55.702Z,95.10
2023-01-20T00:31:25.544Z,94.93
2023-01-20T00:33:55.566Z,95.55
2023-01-20T00:36:24.552Z,95.19
2023-01-20T00:38:54.164Z,94.44
2023-01-20T00:41:22.162Z,93.76
2023-01-20T00:43:50.423Z,94.00
2023-01-20T00:46:18.669Z,94.33
2023-01-20T00:48:46.749Z,94.60
2023-01-20T00:51:14.916Z,93.60
2023-01-20T00:53:43.138Z,92.74
2023-01-20T00:56:12.501Z,92.31
2023-01-20T00:58:40.559Z,92.55
2023-01-20T01:01:08.940Z,90.91
2023-01-20T01:03:38.022Z,90.93
2023-01-20T01:06:12.690Z,92.09
2023-01-20T01:08:42.179Z,91.44
2023-01-20T01:11:13.014Z,91.11
2023-01-20T01:13:41.254Z,89.88
2023-01-20T01:16:12.374Z,89.93
2023-01-20T01:18:40.936Z,89.71
2023-01-20T01:21:09.812Z,90.08
2023-01-20T01:23:37.877Z,90.20
2023-01-20T01:26:06.475Z,89.01
2023-01-20T01:28:35.765Z,89.08
2023-01-20T01:31:04.162Z,88.38
2023-01-20T01:33:33.287Z,88.88
2023-01-20T01:36:03.167Z,88.80
2023-01-20T01:38:31.358Z,88.33
2023-01-20T01:40:59.290Z,88.21
2023-01-20T01:43:30.254Z,88.73
2023-01-20T01:45:59.751Z,88.84
2023-01-20T01:48:30.885Z,88.74
2023-01-20T01:51:03.465Z,89.04
2023-01-20T01:53:37.177Z,89.43
2023-01-20T01:56:05.948Z,88.74
2023-01-20T01:58:36.744Z,89.91
2023-01-20T02:01:06.436Z,89.86
2023-01-20T02:03:43.331Z,90.25
2023-01-20T02:06:12.351Z,90.90
2023-01-20T02:08:40.999Z,91.03
2023-01-20T02:11:09.051Z,91.15
2023-01-20T02:13:37.058Z,90.28
2023-01-20T02:16:16.042Z,90.21
2023-01-20T02:19:02.894Z,90.34
2023-01-20T02:22:01.711Z,88.99
2023-01-20T02:25:13.693Z,90.35
2023-01-20T02:28:08.490Z,90.21
2023-01-20T02:30:49.495Z,91.25
2023-01-20T02:33:24.708Z,92.04
2023-01-20T02:36:11.099Z,91.95
2023-01-20T02:38:44.049Z,92.00
2023-01-20T02:41:18.897Z,92.94
2023-01-20T02:43:51.977Z,92.45
2023-01-20T02:46:26.576Z,92.26
2023-01-20T02:49:01.734Z,92.46
2023-01-20T02:51:38.095Z,92.30
2023-01-20T02:54:09.550Z,91.52
2023-01-20T02:56:38.354Z,90.65
2023-01-20T02:59:12.396Z,91.25
2023-01-20T03:01:43.922Z,91.87
2023-01-20T03:04:16.460Z,91.61
2023-01-20T03:06:48.384Z,91.07
2023-01-20T03:09:21.069Z,89.72
2023-01-20T03:11:55.060Z,90.54
2023-01-20T03:14:23.433Z,89.96
2023-01-20T03:16:51.689Z,89.75
2023-01-20T03:19:21.597Z,88.19
2023-01-20T03:21:50.034Z,87.58
2023-01-20T03:24:18.033Z,86.67
2023-01-20T03:26:46.053Z,87.07
2023-01-20T03:29:16.009Z,86.78
2023-01-20T03:31:48.501Z,86.71
2023-01-20T03:34:19.387Z,86.64
2023-01-20T03:36:49.197Z,88.45
2023-01-20T03:39:18.110Z,87.80
2023-01-20T03:41:56.077Z,86.74
2023-01-20T03:44:33.546Z,87.23
2023-01-20T03:47:11.190Z,86.76
2023-01-20T03:49:45.941Z,85.90
2023-01-20T03:52:46.944Z,85.24
2023-01-20T03:55:17.550Z,85.36
2023-01-20T03:57:50.884Z,85.71
2023-01-20T04:00:22.587Z,86.01
2023-01-20T04:02:51.359Z,85.64
2023-01-20T04:05:19.710Z,86.34
2023-01-20T04:07:51.104Z,85.39
2023-01-20T04:10:20.018Z,85.25
2023-01-20T04:12:48.193Z,85.34
2023-01-20T04:15:18.027Z,85.72
2023-01-20T04:17:46.082Z,86.68
2023-01-20T04:20:16.233Z,86.88
2023-01-20T04:22:52.004Z,86.47
2023-01-20T04:25:29.371Z,86.34
2023-01-20T04:27:57.332Z,85.95
2023-01-20T04:30:25.614Z,86.10
2023-01-20T04:32:53.497Z,85.75
2023-01-20T04:35:21.675Z,85.31
2023-01-20T04:37:51.437Z,85.10
2023-01-20T04:40:19.543Z,86.54
2023-01-20T04:42:47.468Z,86.53
2023-01-20T04:45:17.003Z,87.19
2023-01-20T04:47:47.164Z,89.34
2023-01-20T04:50:16.467Z,90.21
2023-01-20T04:52:44.890Z,89.23
2023-01-20T04:55:15.023Z,87.96
2023-01-20T04:57:43.279Z,87.28
2023-01-20T05:00:18.545Z,86.88
2023-01-20T05:02:46.925Z,86.42
2023-01-20T05:05:15.331Z,87.53
2023-01-20T05:07:43.631Z,86.69
2023-01-20T05:10:13.356Z,86.45
2023-01-20T05:12:43.225Z,86.43
2023-01-20T05:15:11.728Z,85.90
2023-01-20T05:17:39.720Z,86.53
2023-01-20T05:20:08.435Z,85.92
2023-01-20T05:22:36.653Z,85.25
2023-01-20T05:25:04.872Z,84.90
2023-01-20T05:27:35.211Z,84.54
2023-01-20T05:30:05.538Z,84.35
2023-01-20T05:32:33.790Z,83.98
2023-01-20T05:35:01.687Z,83.84
2023-01-20T05:37:29.616Z,84.09
2023-01-20T05:39:57.616Z,85.05
2023-01-20T05:42:25.525Z,84.41
2023-01-20T05:44:53.386Z,84.77
2023-01-20T05:47:22.961Z,84.51
2023-01-20T05:49:51.321Z,84.45
2023-01-20T05:52:19.311Z,82.75
2023-01-20T05:54:47.238Z,81.81
2023-01-20T05:57:18.208Z,80.84
2023-01-20T05:59:47.619Z,83.15
2023-01-20T06:02:18.689Z,83.78
2023-01-20T06:04:48.267Z,84.45
2023-01-20T06:07:16.819Z,84.34
2023-01-20T06:09:44.792Z,84.51
2023-01-20T06:12:12.741Z,84.67
2023-01-20T06:14:40.547Z,84.69
2023-01-20T06:17:08.579Z,84.60
2023-01-20T06:19:36.456Z,84.96
2023-01-20T06:22:05.900Z,85.54
2023-01-20T06:24:33.851Z,84.18
2023-01-20T06:27:01.657Z,83.56
2023-01-20T06:29:29.555Z,81.72
2023-01-20T06:31:57.463Z,81.21
2023-01-20T06:34:25.950Z,81.33
2023-01-20T06:36:54.073Z,81.27
2023-01-20T06:39:23.453Z,81.24
2023-01-20T06:41:51.399Z,81.23
2023-01-20T06:44:19.433Z,80.47
2023-01-20T06:46:48.381Z,79.70
2023-01-20T06:49:16.392Z,79.30
2023-01-20T06:51:44.546Z,78.62
2023-01-20T06:54:18.168Z,78.95
2023-01-20T06:56:47.550Z,78.37
2023-01-20T06:59:15.508Z,77.80
2023-01-20T07:01:43.457Z,78.79
2023-01-20T07:04:14.982Z,78.61
2023-01-20T07:06:43.390Z,79.23
2023-01-20T07:09:13.583Z,79.71
2023-01-20T07:11:41.814Z,80.11
2023-01-20T07:14:11.358Z,79.87
2023-01-20T07:16:39.418Z,80.44
2023-01-20T07:19:07.575Z,79.91
2023-01-20T07:21:35.476Z,81.27
2023-01-20T07:24:03.316Z,81.05
2023-01-20T07:26:32.387Z,80.25
2023-01-20T07:29:00.839Z,81.06
2023-01-20T07:31:31.398Z,80.70
2023-01-20T07:34:00.088Z,80.34
2023-01-20T07:36:28.181Z,79.75
2023-01-20T07:38:56.233Z,79.57
2023-01-20T07:41:24.292Z,79.77
2023-01-20T07:43:53.689Z,78.66
2023-01-20T07:46:22.822Z,78.73
2023-01-20T07:48:52.056Z,78.79
2023-01-20T07:51:19.938Z,78.49
2023-01-20T07:53:50.785Z,79.21
2023-01-20T07:56:20.431Z,78.48
2023-01-20T07:58:50.518Z,79.71
2023-01-20T08:01:20.270Z,82.14
2023-01-20T08:03:49.001Z,82.49
2023-01-20T08:06:20.464Z,82.21
2023-01-20T08:08:49.435Z,82.76
2023-01-20T08:11:19.183Z,83.14
2023-01-20T08:13:48.224Z,82.89
2023-01-20T08:16:18.292Z,81.41
2023-01-20T08:18:46.913Z,80.33
2023-01-20T08:21:22.319Z,80.07
2023-01-20T08:23:50.693Z,79.73
2023-01-20T08:26:19.906Z,79.77
2023-01-20T08:28:48.908Z,80.39
2023-01-20T08:31:20.141Z,80.10
2023-01-20T08:33:49.588Z,81.07
2023-01-20T08:36:21.419Z,83.32
2023-01-20T08:38:49.793Z,83.81
2023-01-20T08:41:19.987Z,81.45
2023-01-20T08:43:47.989Z,79.61
2023-01-20T08:46:18.141Z,77.39
2023-01-20T08:48:46.468Z,76.56
2023-01-20T08:51:16.988Z,75.15
2023-01-20T08:53:46.312Z,73.70
2023-01-20T08:56:14.632Z,73.87
2023-01-20T08:58:42.601Z,73.78
2023-01-20T09:01:11.554Z,74.84
2023-01-20T09:03:39.948Z,74.60
2023-01-20T09:06:09.596Z,74.35
2023-01-20T09:08:38.202Z,73.94
2023-01-20T09:11:09.361Z,74.68
2023-01-20T09:13:37.483Z,75.28
2023-01-20T09:16:06.486Z,74.93
2023-01-20T09:18:36.050Z,75.08
2023-01-20T09:21:06.654Z,73.94
2023-01-20T09:23:35.948Z,72.97
2023-01-20T09:26:05.176Z,72.22
2023-01-20T09:28:35.130Z,70.45
2023-01-20T09:31:05.406Z,68.17
2023-01-20T09:33:36.057Z,67.04
2023-01-20T09:36:05.560Z,65.94
2023-01-20T09:38:51.017Z,64.76
2023-01-20T09:41:43.992Z,63.13
2023-01-20T09:44:32.828Z,62.30
2023-01-20T09:47:22.835Z,62.11
2023-01-20T09:50:25.511Z,61.99
2023-01-20T09:53:04.851Z,62.22
2023-01-20T09:55:39.783Z,63.50
2023-01-20T09:58:14.911Z,64.50
2023-01-20T10:00:49.016Z,63.16
2023-01-20T10:03:23.068Z,63.48
2023-01-20T10:05:53.900Z,63.34
2023-01-20T10:08:27.787Z,64.04
2023-01-20T10:11:04.359Z,64.71
2023-01-20T10:13:35.948Z,64.33
2023-01-20T10:16:12.440Z,62.43
2023-01-20T10:18:47.630Z,62.51
2023-01-20T10:21:21.695Z,61.57
2023-01-20T10:23:53.699Z,62.41
2023-01-20T10:26:27.608Z,63.72
2023-01-20T10:29:00.717Z,65.84
2023-01-20T10:31:34.644Z,67.19
2023-01-20T10:34:12.252Z,67.73
2023-01-20T10:36:44.665Z,66.80
2023-01-20T10:39:22.635Z,66.09
2023-01-20T10:41:54.643Z,66.56
2023-01-20T10:44:23.749Z,66.65
2023-01-20T10:47:08.590Z,66.98
2023-01-20T10:50:02.799Z,66.04
2023-01-20T10:52:45.148Z,65.23
2023-01-20T10:55:26.995Z,65.70
2023-01-20T10:58:00.101Z,63.72
2023-01-20T11:00:30.824Z,63.75
2023-01-20T11:03:03.250Z,63.96
2023-01-20T11:05:33.299Z,63.04
2023-01-20T11:08:03.145Z,62.44
2023-01-20T11:10:33.869Z,61.98
2023-01-20T11:13:03.265Z,60.59
2023-01-20T11:15:33.430Z,60.45
2023-01-20T11:18:24.244Z,59.72
2023-01-20T11:20:54.408Z,59.22
2023-01-20T11:23:24.580Z,57.92
2023-01-20T11:25:57.313Z,57.67
2023-01-20T11:28:26.060Z,56.09
2023-01-20T11:30:56.818Z,56.81
2023-01-20T11:33:28.261Z,56.34
2023-01-20T11:36:01.467Z,56.32
2023-01-20T11:38:30.588Z,54.63
2023-01-20T11:41:06.473Z,55.19
2023-01-20T11:43:37.814Z,54.71
2023-01-20T11:46:24.117Z,53.09
2023-01-20T11:49:13.447Z,51.39
2023-01-20T11:51:47.027Z,52.30
2023-01-20T11:54:17.823Z,51.36
2023-01-20T11:56:48.278Z,50.54
2023-01-20T11:59:29.110Z,49.26
2023-01-20T12:02:01.559Z,51.11
2023-01-20T12:04:44.265Z,51.86
2023-01-20T12:07:26.757Z,51.17
2023-01-20T12:09:59.359Z,51.31
2023-01-20T12:12:50.575Z,52.26
2023-01-20T12:15:22.824Z,52.71
2023-01-20T12:17:57.231Z,53.37
2023-01-20T12:20:31.937Z,54.45
2023-01-20T12:23:12.192Z,53.43
2023-01-20T12:25:47.607Z,52.98
2023-01-20T12:28:21.256Z,49.65
2023-01-20T12:30:57.212Z,50.59
2023-01-20T12:33:29.819Z,50.56
2023-01-20T12:36:28.475Z,50.98
2023-01-20T12:39:14.146Z,51.95
2023-01-20T12:42:05.849Z,51.04
2023-01-20T12:44:40.371Z,51.08
2023-01-20T12:47:21.898Z,51.44
2023-01-20T12:50:04.225Z,51.27
2023-01-20T12:52:47.167Z,51.38
2023-01-20T12:55:27.866Z,51.33
2023-01-20T12:58:08.346Z,52.95
2023-01-20T13:00:57.243Z,50.75
2023-01-20T13:03:56.919Z,51.06
2023-01-20T13:06:39.385Z,51.06
2023-01-20T13:09:25.786Z,50.87
2023-01-20T13:12:06.293Z,50.37
2023-01-20T13:14:40.670Z,50.62
2023-01-20T13:17:17.382Z,50.12
2023-01-20T13:19:48.264Z,51.29
2023-01-20T13:22:19.911Z,49.88
2023-01-20T13:24:49.792Z,49.71
2023-01-20T13:27:24.421Z,51.67
2023-01-20T13:30:06.915Z,52.69
2023-01-20T13:32:38.789Z,53.42
2023-01-20T13:35:44.260Z,53.97
2023-01-20T13:38:21.777Z,54.74
2023-01-20T13:40:55.846Z,54.77
2023-01-20T13:43:56.970Z,55.94
2023-01-20T13:46:47.673Z,55.90
2023-01-20T13:49:30.896Z,56.60
2023-01-20T13:51:58.921Z,56.21
2023-01-20T13:54:48.751Z,55.42
2023-01-20T13:57:46.482Z,55.58
2023-01-20T14:00:18.454Z,56.18
2023-01-20T14:02:48.560Z,55.83
2023-01-20T14:05:25.792Z,54.78
2023-01-20T14:08:00.492Z,54.75
2023-01-20T14:10:28.605Z,54.44
2023-01-20T14:12:56.576Z,54.77
2023-01-20T14:15:38.602Z,56.23
2023-01-20T14:18:15.022Z,55.48
2023-01-20T14:20:45.341Z,58.11
2023-01-20T14:23:33.809Z,57.79
2023-01-20T14:26:05.038Z,57.97
2023-01-20T14:28:33.175Z,58.06
2023-01-20T14:31:24.408Z,57.35
2023-01-20T14:33:57.633Z,57.19
2023-01-20T14:36:28.296Z,56.36
2023-01-20T14:38:58.830Z,56.90
2023-01-20T14:41:33.252Z,57.38
2023-01-20T14:44:01.956Z,56.85
2023-01-20T14:46:33.675Z,56.71
2023-01-20T14:49:02.549Z,56.29
2023-01-20T14:51:30.565Z,55.88
2023-01-20T14:54:40.041Z,56.26
2023-01-20T14:57:21.948Z,56.00
2023-01-20T15:00:02.934Z,55.93
2023-01-20T15:02:34.997Z,55.25
2023-01-20T15:05:37.317Z,55.25
2023-01-20T15:08:24.338Z,55.82
2023-01-20T15:11:22.424Z,55.52
2023-01-20T15:14:10.080Z,54.57
2023-01-20T15:16:49.647Z,54.90
2023-01-20T15:19:38.065Z,55.00
2023-01-20T15:22:18.693Z,54.97
2023-01-20T15:24:49.421Z,54.90
2023-01-20T15:27:30.391Z,54.76
2023-01-20T15:30:04.032Z,54.85
2023-01-20T15:32:31.741Z,55.06
2023-01-20T15:35:00.857Z,55.05
2023-01-20T15:37:28.577Z,54.98
2023-01-20T15:39:56.261Z,55.06
2023-01-20T15:42:24.288Z,55.38
2023-01-20T15:44:52.003Z,55.46
2023-01-20T15:47:21.890Z,55.98
2023-01-20T15:49:49.647Z,55.69
2023-01-20T15:52:19.323Z,55.60
2023-01-20T15:54:47.034Z,55.05
2023-01-20T15:57:15.806Z,55.50
2023-01-20T15:59:45.320Z,55.05
2023-01-20T16:02:18.587Z,54.69
2023-01-20T16:04:46.643Z,56.03
2023-01-20T16:07:16.318Z,54.67
2023-01-20T16:09:46.693Z,55.51
2023-01-20T16:12:15.230Z,54.20
2023-01-20T16:14:43.373Z,54.28
2023-01-20T16:17:15.809Z,53.30
2023-01-20T16:19:43.576Z,52.99
2023-01-20T16:22:13.374Z,53.30
2023-01-20T16:24:41.426Z,52.39
2023-01-20T16:27:18.146Z,51.82
2023-01-20T16:29:46.044Z,51.28
2023-01-20T16:32:17.129Z,51.37
2023-01-20T16:34:46.620Z,52.44
2023-01-20T16:37:15.015Z,51.88
2023-01-20T16:39:42.861Z,50.44
2023-01-20T16:42:14.446Z,50.97
2023-01-20T16:44:42.245Z,50.77
2023-01-20T16:47:10.258Z,49.73
2023-01-20T16:49:38.891Z,49.42
2023-01-20T16:52:06.775Z,49.16
2023-01-20T16:54:34.851Z,49.56
2023-01-20T16:57:02.595Z,49.07
2023-01-20T16:59:31.754Z,49.34
2023-01-20T17:01:59.477Z,49.07
2023-01-20T17:04:27.319Z,48.74
2023-01-20T17:06:55.080Z,48.33
2023-01-20T17:09:22.932Z,47.88
2023-01-20T17:11:50.640Z,48.39
2023-01-20T17:14:18.394Z,48.67
2023-01-20T17:16:47.404Z,50.67
2023-01-20T17:19:17.557Z,50.44
2023-01-20T17:21:45.473Z,50.79
2023-01-20T17:24:13.301Z,51.48
2023-01-20T17:26:41.348Z,51.95
2023-01-20T17:29:09.113Z,51.85
2023-01-20T17:31:37.290Z,51.23
2023-01-20T17:34:07.567Z,51.42
2023-01-20T17:36:35.573Z,51.72
2023-01-20T17:39:04.590Z,50.80
2023-01-20T17:41:32.553Z,51.71
2023-01-20T17:44:00.396Z,51.63
2023-01-20T17:46:30.169Z,53.22
2023-01-20T17:48:58.603Z,52.36
2023-01-20T17:51:29.783Z,53.38
2023-01-20T17:53:58.763Z,53.39
2023-01-20T17:56:27.397Z,52.66
2023-01-20T17:58:55.128Z,52.51
2023-01-20T18:01:25.539Z,52.70
2023-01-20T18:03:55.308Z,51.79
2023-01-20T18:06:24.303Z,52.29
2023-01-20T18:08:55.431Z,52.80
2023-01-20T18:11:24.090Z,52.17
2023-01-20T18:13:53.403Z,51.67
2023-01-20T18:16:22.427Z,51.34
2023-01-20T18:18:50.800Z,53.51
2023-01-20T18:21:20.190Z,53.98
2023-01-20T18:23:49.945Z,54.13
2023-01-20T18:26:21.214Z,53.61
2023-01-20T18:28:49.469Z,54.90
2023-01-20T18:31:19.975Z,53.83
2023-01-20T18:33:50.100Z,54.92
2023-01-20T18:36:19.878Z,56.33
2023-01-20T18:38:51.102Z,56.45
2023-01-20T18:41:20.978Z,56.16
2023-01-20T18:43:49.875Z,56.98
2023-01-20T18:46:18.037Z,56.67
2023-01-20T18:48:48.919Z,56.82
2023-01-20T18:51:20.349Z,57.53
2023-01-20T18:53:54.875Z,57.39
2023-01-20T18:56:25.185Z,56.57
2023-01-20T18:58:54.698Z,57.24
2023-01-20T19:01:25.156Z,56.76
2023-01-20T19:03:54.160Z,56.75
2023-01-20T19:06:24.615Z,57.62
2023-01-20T19:08:53.560Z,57.76
2023-01-20T19:11:25.569Z,57.99
2023-01-20T19:13:54.775Z,58.05
2023-01-20T19:16:24.899Z,58.26
2023-01-20T19:18:54.682Z,58.05
2023-01-20T19:21:24.258Z,58.39
2023-01-20T19:23:53.843Z,58.03
2023-01-20T19:26:23.313Z,58.74
2023-01-20T19:28:57.886Z,59.82
2023-01-20T19:31:26.048Z,60.63
2023-01-20T19:33:56.217Z,62.07
2023-01-20T19:36:28.156Z,62.36
2023-01-20T19:39:00.912Z,62.01
2023-01-20T19:41:37.655Z,62.87
2023-01-20T19:44:18.977Z,64.35
2023-01-20T19:46:48.580Z,65.01
2023-01-20T19:49:16.470Z,65.18
2023-01-20T19:51:44.264Z,65.71
2023-01-20T19:54:14.514Z,66.85
2023-01-20T19:56:42.450Z,66.90
2023-01-20T19:59:13.522Z,67.66
2023-01-20T20:01:41.548Z,67.67
2023-01-20T20:04:12.785Z,69.63
2023-01-20T20:06:45.661Z,69.96
2023-01-20T20:09:17.661Z,70.43
2023-01-20T20:11:45.876Z,71.00
2023-01-20T20:14:16.871Z,70.54
2023-01-20T20:16:44.638Z,72.27
2023-01-20T20:19:14.156Z,71.83
2023-01-20T20:21:41.883Z,72.78
2023-01-20T20:24:15.800Z,72.29
2023-01-20T20:26:45.531Z,72.53
2023-01-20T20:29:15.914Z,73.74
2023-01-20T20:31:43.749Z,73.63
2023-01-20T20:34:14.560Z,74.40
2023-01-20T20:36:42.385Z,75.07
2023-01-20T20:39:13.341Z,74.92
2023-01-20T20:41:41.435Z,74.75
2023-01-20T20:44:10.911Z,73.99
2023-01-20T20:46:40.589Z,75.05
2023-01-20T20:49:09.783Z,75.65
2023-01-20T20:51:37.471Z,75.93
2023-01-20T20:54:05.199Z,76.04
2023-01-20T20:56:32.925Z,75.85
2023-01-20T20:59:03.056Z,75.89
2023-01-20T21:01:33.405Z,76.52
2023-01-20T21:04:03.690Z,76.09
2023-01-20T21:06:32.428Z,75.99
2023-01-20T21:09:00.615Z,76.35
2023-01-20T21:11:28.921Z,76.90
2023-01-20T21:13:56.864Z,77.52
2023-01-20T21:16:25.621Z,78.21
2023-01-20T21:18:55.983Z,78.14
2023-01-20T21:21:28.824Z,77.66
2023-01-20T21:23:58.435Z,77.34
2023-01-20T21:26:30.180Z,78.16
2023-01-20T21:29:00.159Z,77.76
2023-01-20T21:31:28.072Z,77.81
2023-01-20T21:33:58.277Z,78.22
2023-01-20T21:36:28.787Z,79.16
2023-01-20T21:38:56.549Z,80.16
2023-01-20T21:41:24.298Z,79.93
2023-01-20T21:44:09.543Z,80.87
2023-01-20T21:46:39.878Z,82.62
2023-01-20T21:49:25.751Z,82.50
2023-01-20T21:52:12.714Z,82.58
2023-01-20T21:54:41.275Z,81.95
2023-01-20T21:57:09.925Z,82.07
2023-01-20T21:59:37.722Z,80.95
2023-01-20T22:02:05.683Z,82.23
2023-01-20T22:04:33.794Z,82.45
2023-01-20T22:07:02.884Z,82.36
2023-01-20T22:09:30.848Z,82.80
2023-01-20T22:11:58.623Z,81.59
2023-01-20T22:14:26.427Z,81.40
2023-01-20T22:16:54.214Z,82.06
2023-01-20T22:19:21.959Z,81.57
2023-01-20T22:21:49.762Z,81.54
2023-01-20T22:24:19.219Z,81.74
2023-01-20T22:26:47.973Z,80.68
2023-01-20T22:29:15.956Z,80.52
2023-01-20T22:31:44.000Z,80.81
2023-01-20T22:34:12.140Z,82.27
2023-01-20T22:36:40.615Z,83.47
2023-01-20T22:39:08.724Z,83.64
2023-01-20T22:41:37.769Z,83.46
2023-01-20T22:44:05.476Z,83.73
2023-01-20T22:46:33.529Z,83.23
2023-01-20T22:49:01.296Z,83.94
2023-01-20T22:51:30.720Z,83.31
2023-01-20T22:54:02.754Z,84.60
2023-01-20T22:56:32.173Z,86.04
2023-01-20T22:59:01.780Z,85.17
2023-01-20T23:01:32.341Z,86.51
2023-01-20T23:04:02.351Z,88.29
2023-01-20T23:06:32.572Z,87.84
2023-01-20T23:09:00.598Z,87.38
2023-01-20T23:11:28.804Z,88.01
2023-01-20T23:13:56.676Z,89.52
2023-01-20T23:16:25.872Z,88.56
2023-01-20T23:18:53.711Z,91.19
2023-01-20T23:21:22.666Z,91.78
2023-01-20T23:23:54.216Z,90.35
2023-01-20T23:26:23.987Z,89.08
2023-01-20T23:28:53.437Z,89.52
2023-01-20T23:31:22.198Z,88.63
2023-01-20T23:33:51.681Z,88.13
2023-01-20T23:36:21.520Z,87.76
2023-01-20T23:38:49.687Z,87.96
2023-01-20T23:41:20.879Z,87.96
2023-01-20T23:43:48.788Z,86.75
2023-01-20T23:46:16.525Z,86.06
2023-01-20T23:48:46.166Z,85.86
2023-01-20T23:51:15.835Z,86.62
2023-01-20T23:53:44.175Z,86.52
2023-01-20T23:56:15.157Z,87.11
2023-01-20T23:58:43.027Z,85.99
